createdAt,value
2023-05-06T00:02:26.514Z,14.50
2023-05-06T00:04:54.960Z,14.40
2023-05-06T00:07:23.711Z,14.50
2023-05-06T00:09:52.084Z,14.70
2023-05-06T00:12:20.463Z,14.80
2023-05-06T00:14:48.779Z,15.00
2023-05-06T00:17:17.295Z,15.20
2023-05-06T00:19:46.026Z,15.10
2023-05-06T00:22:14.426Z,15.20
2023-05-06T00:24:42.973Z,15.30
2023-05-06T00:27:11.525Z,15.00
2023-05-06T00:29:39.831Z,14.70
2023-05-06T00:32:08.219Z,14.60
2023-05-06T00:34:36.593Z,14.70
2023-05-06T00:37:04.922Z,14.70
2023-05-06T00:39:34.275Z,14.80
2023-05-06T00:42:03.351Z,14.60
2023-05-06T00:44:35.495Z,14.30
2023-05-06T00:47:04.065Z,14.10
2023-05-06T00:49:32.774Z,14.30
2023-05-06T00:52:02.083Z,14.50
2023-05-06T00:54:30.543Z,14.60
2023-05-06T00:56:58.963Z,14.40
2023-05-06T00:59:27.379Z,14.10
2023-05-06T01:01:55.801Z,14.30
2023-05-06T01:04:25.807Z,14.30
2023-05-06T01:07:03.768Z,14.40
2023-05-06T01:09:50.422Z,14.20
2023-05-06T01:12:33.703Z,14.00
2023-05-06T01:15:10.452Z,14.30
2023-05-06T01:17:44.535Z,14.50
2023-05-06T01:20:14.074Z,14.50
2023-05-06T01:22:42.503Z,14.60
2023-05-06T01:25:20.683Z,14.80
2023-05-06T01:27:49.289Z,14.80
2023-05-06T01:30:19.498Z,15.00
2023-05-06T01:33:06.032Z,15.00
2023-05-06T01:35:57.532Z,15.00
2023-05-06T01:38:34.409Z,15.20
2023-05-06T01:41:03.914Z,15.00
2023-05-06T01:43:44.483Z,15.10
2023-05-06T01:46:18.895Z,15.00
2023-05-06T01:48:50.213Z,14.70
2023-05-06T01:51:18.537Z,14.60
2023-05-06T01:53:47.046Z,14.40
2023-05-06T01:56:15.469Z,14.20
2023-05-06T01:58:43.892Z,14.30
2023-05-06T02:01:12.355Z,14.10
2023-05-06T02:03:40.883Z,14.20
2023-05-06T02:06:09.613Z,14.30
2023-05-06T02:08:37.918Z,14.20
2023-05-06T02:11:06.353Z,14.30
2023-05-06T02:13:34.667Z,14.20
2023-05-06T02:16:05.092Z,14.30
2023-05-06T02:18:33.476Z,13.70
2023-05-06T02:21:02.246Z,13.40
2023-05-06T02:23:30.908Z,13.20
2023-05-06T02:25:59.711Z,13.10
2023-05-06T02:28:28.112Z,13.40
2023-05-06T02:30:57.507Z,13.40
2023-05-06T02:33:26.038Z,13.50
2023-05-06T02:35:54.322Z,13.50
2023-05-06T02:38:23.129Z,13.40
2023-05-06T02:40:51.464Z,13.20
2023-05-06T02:43:19.784Z,13.00
2023-05-06T02:45:48.171Z,13.20
2023-05-06T02:48:17.224Z,13.20
2023-05-06T02:50:45.665Z,13.40
2023-05-06T02:53:14.057Z,13.50
2023-05-06T02:55:42.382Z,13.60
2023-05-06T02:58:10.677Z,13.70
2023-05-06T03:00:38.975Z,13.60
2023-05-06T03:03:07.603Z,13.50
2023-05-06T03:05:36.181Z,13.60
2023-05-06T03:08:04.545Z,13.40
2023-05-06T03:10:32.855Z,13.40
2023-05-06T03:13:01.224Z,13.50
2023-05-06T03:15:29.653Z,13.20
2023-05-06T03:17:58.087Z,12.60
2023-05-06T03:20:26.554Z,12.50
2023-05-06T03:22:54.892Z,12.70
2023-05-06T03:25:23.220Z,12.80
2023-05-06T03:27:51.525Z,12.90
2023-05-06T03:30:19.884Z,13.00
2023-05-06T03:32:49.601Z,13.00
2023-05-06T03:35:18.353Z,13.10
2023-05-06T03:37:46.659Z,12.80
2023-05-06T03:40:15.042Z,12.90
2023-05-06T03:42:43.468Z,13.00
2023-05-06T03:45:11.998Z,13.00
2023-05-06T03:47:40.587Z,12.80
2023-05-06T03:50:09.330Z,12.90
2023-05-06T03:52:37.750Z,12.60
2023-05-06T03:55:06.451Z,12.40
2023-05-06T03:57:34.815Z,12.60
2023-05-06T04:00:03.154Z,12.60
2023-05-06T04:02:31.722Z,12.50
2023-05-06T04:05:00.117Z,12.40
2023-05-06T04:07:28.509Z,12.50
2023-05-06T04:09:56.821Z,12.50
2023-05-06T04:12:25.128Z,12.60
2023-05-06T04:14:53.424Z,12.70
2023-05-06T04:17:21.719Z,12.70
2023-05-06T04:19:50.324Z,12.50
2023-05-06T04:22:19.179Z,12.50
2023-05-06T04:24:47.630Z,12.40
2023-05-06T04:27:16.383Z,12.50
2023-05-06T04:29:44.688Z,12.60
2023-05-06T04:32:13.096Z,12.70
2023-05-06T04:34:41.402Z,12.80
2023-05-06T04:37:09.991Z,12.70
2023-05-06T04:39:40.028Z,12.70
2023-05-06T04:42:08.679Z,12.70
2023-05-06T04:44:37.266Z,12.70
2023-05-06T04:47:05.593Z,12.70
2023-05-06T04:49:33.939Z,12.60
2023-05-06T04:52:02.726Z,12.60
2023-05-06T04:54:31.156Z,12.60
2023-05-06T04:56:59.544Z,12.80
2023-05-06T04:59:27.874Z,12.90
2023-05-06T05:01:56.265Z,12.90
2023-05-06T05:04:24.598Z,12.90
2023-05-06T05:06:53.408Z,13.00
2023-05-06T05:09:21.728Z,13.00
2023-05-06T05:11:50.255Z,13.00
2023-05-06T05:14:18.538Z,12.90
2023-05-06T05:16:46.907Z,12.90
2023-05-06T05:19:15.212Z,12.80
2023-05-06T05:21:43.963Z,12.90
2023-05-06T05:24:12.303Z,12.90
2023-05-06T05:26:40.642Z,13.00
2023-05-06T05:29:09.156Z,13.00
2023-05-06T05:31:37.484Z,13.00
2023-05-06T05:34:05.834Z,13.00
2023-05-06T05:36:34.139Z,13.00
2023-05-06T05:39:02.487Z,12.80
2023-05-06T05:41:30.815Z,12.50
2023-05-06T05:43:59.104Z,12.60
2023-05-06T05:46:27.486Z,12.80
2023-05-06T05:48:55.795Z,12.90
2023-05-06T05:51:24.093Z,12.90
2023-05-06T05:53:52.994Z,12.80
2023-05-06T05:56:21.531Z,12.50
2023-05-06T05:58:49.903Z,12.50
2023-05-06T06:01:18.718Z,12.40
2023-05-06T06:03:47.721Z,12.30
2023-05-06T06:06:16.261Z,12.20
2023-05-06T06:08:44.762Z,12.20
2023-05-06T06:11:13.321Z,12.10
2023-05-06T06:13:41.668Z,12.20
2023-05-06T06:16:10.135Z,12.20
2023-05-06T06:18:38.571Z,12.30
2023-05-06T06:21:07.016Z,12.50
2023-05-06T06:23:35.647Z,12.60
2023-05-06T06:26:05.447Z,12.50
2023-05-06T06:28:33.796Z,12.60
2023-05-06T06:31:02.673Z,12.40
2023-05-06T06:33:30.997Z,12.20
2023-05-06T06:35:59.419Z,12.40
2023-05-06T06:38:27.772Z,12.30
2023-05-06T06:40:56.058Z,12.10
2023-05-06T06:43:25.540Z,12.00
2023-05-06T06:45:54.007Z,12.10
2023-05-06T06:48:22.317Z,12.20
2023-05-06T06:50:50.631Z,12.20
2023-05-06T06:53:18.943Z,12.00
2023-05-06T06:55:47.437Z,12.20
2023-05-06T06:58:15.775Z,12.20
2023-05-06T07:00:44.079Z,12.20
2023-05-06T07:03:12.399Z,12.30
2023-05-06T07:05:40.721Z,12.30
2023-05-06T07:08:09.044Z,12.30
2023-05-06T07:10:37.358Z,12.00
2023-05-06T07:13:06.104Z,12.20
2023-05-06T07:15:34.481Z,12.20
2023-05-06T07:18:02.868Z,12.10
2023-05-06T07:20:31.539Z,12.10
2023-05-06T07:22:59.865Z,12.00
2023-05-06T07:25:28.784Z,11.90
2023-05-06T07:27:57.147Z,11.90
2023-05-06T07:30:25.530Z,11.90
2023-05-06T07:32:54.168Z,12.00
2023-05-06T07:35:22.496Z,12.10
2023-05-06T07:37:50.940Z,12.10
2023-05-06T07:40:19.220Z,12.00
2023-05-06T07:42:47.708Z,12.00
2023-05-06T07:45:16.085Z,12.10
2023-05-06T07:47:44.428Z,12.20
2023-05-06T07:50:12.880Z,12.20
2023-05-06T07:52:41.220Z,12.10
2023-05-06T07:55:11.658Z,12.20
2023-05-06T07:57:40.298Z,12.10
2023-05-06T08:00:10.730Z,12.20
2023-05-06T08:02:40.283Z,12.20
2023-05-06T08:05:09.676Z,12.30
2023-05-06T08:07:38.596Z,12.30
2023-05-06T08:10:07.559Z,12.30
2023-05-06T08:12:37.366Z,12.30
2023-05-06T08:15:06.245Z,12.20
2023-05-06T08:17:34.914Z,12.00
2023-05-06T08:20:03.353Z,11.90
2023-05-06T08:22:31.706Z,11.80
2023-05-06T08:25:00.249Z,11.70
2023-05-06T08:27:28.634Z,11.60
2023-05-06T08:29:56.913Z,11.70
2023-05-06T08:32:25.325Z,11.60
2023-05-06T08:34:53.822Z,11.50
2023-05-06T08:37:22.131Z,11.50
2023-05-06T08:39:50.444Z,11.60
2023-05-06T08:42:19.042Z,11.80
2023-05-06T08:44:47.848Z,11.90
2023-05-06T08:47:16.200Z,11.90
2023-05-06T08:49:44.562Z,12.00
2023-05-06T08:52:13.334Z,12.00
2023-05-06T08:54:43.295Z,12.00
2023-05-06T08:57:13.520Z,11.80
2023-05-06T08:59:42.631Z,11.80
2023-05-06T09:02:12.013Z,11.90
2023-05-06T09:04:41.284Z,11.80
2023-05-06T09:07:10.606Z,11.70
2023-05-06T09:09:38.882Z,11.70
2023-05-06T09:12:12.998Z,11.90
2023-05-06T09:14:42.239Z,11.90
2023-05-06T09:17:28.955Z,11.80
2023-05-06T09:19:58.075Z,11.80
2023-05-06T09:22:29.368Z,11.90
2023-05-06T09:24:59.306Z,12.10
2023-05-06T09:27:29.798Z,11.90
2023-05-06T09:30:06.839Z,12.00
2023-05-06T09:32:38.313Z,12.10
2023-05-06T09:35:09.492Z,12.10
2023-05-06T09:37:38.100Z,12.20
2023-05-06T09:40:07.106Z,12.10
2023-05-06T09:42:36.055Z,12.10
2023-05-06T09:45:04.465Z,12.00
2023-05-06T09:47:36.488Z,12.10
2023-05-06T09:50:05.623Z,12.10
2023-05-06T09:52:34.520Z,12.20
2023-05-06T09:55:04.466Z,12.10
2023-05-06T09:57:34.283Z,12.10
2023-05-06T10:00:04.804Z,12.10
2023-05-06T10:02:34.004Z,12.20
2023-05-06T10:05:09.767Z,12.30
2023-05-06T10:07:39.677Z,12.20
2023-05-06T10:10:12.859Z,12.20
2023-05-06T10:12:41.465Z,12.30
2023-05-06T10:15:10.787Z,12.20
2023-05-06T10:17:42.501Z,12.20
2023-05-06T10:20:14.010Z,12.20
2023-05-06T10:23:00.790Z,12.20
2023-05-06T10:25:29.044Z,12.20
2023-05-06T10:27:57.341Z,12.30
2023-05-06T10:30:27.637Z,12.20
2023-05-06T10:33:00.925Z,12.10
2023-05-06T10:35:35.033Z,12.10
2023-05-06T10:38:06.323Z,12.10
2023-05-06T10:40:34.774Z,12.20
2023-05-06T10:43:32.083Z,12.30
2023-05-06T10:46:11.882Z,12.30
2023-05-06T10:48:59.808Z,12.20
2023-05-06T10:51:29.509Z,12.10
2023-05-06T10:54:07.596Z,12.10
2023-05-06T10:56:36.719Z,12.00
2023-05-06T10:59:13.282Z,12.00
2023-05-06T11:01:43.695Z,11.80
2023-05-06T11:04:20.157Z,11.60
2023-05-06T11:06:52.430Z,11.70
2023-05-06T11:09:24.472Z,11.70
2023-05-06T11:12:03.391Z,11.80
2023-05-06T11:14:39.283Z,11.90
2023-05-06T11:17:09.500Z,12.00
2023-05-06T11:19:39.598Z,12.00
2023-05-06T11:22:08.318Z,12.10
2023-05-06T11:24:44.392Z,12.10
2023-05-06T11:27:13.263Z,11.70
2023-05-06T11:29:44.633Z,11.50
2023-05-06T11:32:24.288Z,11.50
2023-05-06T11:34:57.422Z,11.60
2023-05-06T11:37:27.589Z,11.70
2023-05-06T11:39:56.344Z,11.70
2023-05-06T11:42:29.585Z,11.80
2023-05-06T11:45:02.972Z,11.90
2023-05-06T11:47:31.516Z,11.80
2023-05-06T11:50:00.701Z,11.70
2023-05-06T11:52:31.116Z,11.60
2023-05-06T11:54:59.428Z,11.50
2023-05-06T11:57:27.729Z,11.40
2023-05-06T11:59:56.255Z,11.50
2023-05-06T12:02:24.661Z,11.50
2023-05-06T12:04:53.943Z,11.50
2023-05-06T12:07:22.746Z,11.20
2023-05-06T12:09:52.057Z,11.00
2023-05-06T12:12:23.215Z,10.70
2023-05-06T12:14:53.680Z,10.60
2023-05-06T12:17:22.249Z,10.70
2023-05-06T12:19:51.163Z,10.60
2023-05-06T12:22:25.356Z,10.60
2023-05-06T12:24:54.151Z,10.50
2023-05-06T12:27:36.389Z,10.70
2023-05-06T12:30:05.080Z,10.90
2023-05-06T12:32:33.834Z,11.00
2023-05-06T12:35:08.012Z,11.10
2023-05-06T12:37:36.489Z,11.10
2023-05-06T12:40:04.990Z,10.90
2023-05-06T12:42:33.356Z,10.90
2023-05-06T12:45:17.354Z,10.80
2023-05-06T12:48:06.006Z,11.00
2023-05-06T12:50:40.483Z,10.80
2023-05-06T12:53:11.382Z,10.90
2023-05-06T12:55:40.711Z,11.00
2023-05-06T12:58:19.941Z,10.90
2023-05-06T13:00:48.279Z,10.70
2023-05-06T13:03:16.899Z,10.80
2023-05-06T13:05:47.150Z,11.00
2023-05-06T13:08:15.451Z,11.10
2023-05-06T13:10:43.761Z,11.20
2023-05-06T13:13:12.244Z,11.20
2023-05-06T13:15:40.763Z,11.40
2023-05-06T13:18:09.744Z,11.40
2023-05-06T13:20:38.117Z,11.50
2023-05-06T13:23:06.383Z,11.50
2023-05-06T13:25:37.978Z,11.70
2023-05-06T13:28:13.100Z,11.70
2023-05-06T13:30:41.694Z,11.70
2023-05-06T13:33:10.028Z,11.70
2023-05-06T13:35:38.348Z,11.70
2023-05-06T13:38:06.635Z,11.80
2023-05-06T13:40:34.986Z,11.80
2023-05-06T13:43:03.277Z,11.80
2023-05-06T13:45:31.564Z,11.90
2023-05-06T13:47:59.914Z,11.90
2023-05-06T13:50:28.202Z,11.90
2023-05-06T13:52:56.521Z,12.10
2023-05-06T13:55:24.849Z,12.30
2023-05-06T13:57:53.137Z,12.50
2023-05-06T14:00:21.705Z,12.60
2023-05-06T14:02:50.200Z,12.90
2023-05-06T14:05:18.754Z,13.10
2023-05-06T14:07:47.225Z,13.00
2023-05-06T14:10:16.399Z,12.80
2023-05-06T14:12:44.823Z,12.70
2023-05-06T14:15:13.789Z,12.60
2023-05-06T14:17:42.696Z,12.50
2023-05-06T14:20:11.634Z,12.60
2023-05-06T14:22:42.108Z,13.00
2023-05-06T14:25:11.516Z,13.40
2023-05-06T14:27:40.070Z,13.60
2023-05-06T14:30:09.827Z,14.00
2023-05-06T14:32:38.628Z,14.20
2023-05-06T14:35:07.495Z,14.30
2023-05-06T14:37:35.830Z,14.60
2023-05-06T14:40:05.329Z,14.80
2023-05-06T14:42:33.624Z,14.80
2023-05-06T14:45:01.926Z,14.60
2023-05-06T14:47:30.342Z,14.50
2023-05-06T14:49:58.756Z,14.50
2023-05-06T14:52:27.160Z,14.50
2023-05-06T14:54:55.496Z,14.00
2023-05-06T14:57:24.664Z,14.10
2023-05-06T14:59:53.048Z,14.10
2023-05-06T15:02:21.867Z,14.20
2023-05-06T15:04:50.229Z,14.70
2023-05-06T15:07:18.747Z,15.00
2023-05-06T15:09:47.032Z,15.40
2023-05-06T15:12:15.424Z,16.00
2023-05-06T15:14:43.746Z,16.80
2023-05-06T15:17:12.825Z,17.60
2023-05-06T15:19:41.207Z,18.60
2023-05-06T15:22:09.522Z,19.40
2023-05-06T15:24:37.874Z,20.80
2023-05-06T15:27:06.309Z,21.80
2023-05-06T15:29:34.634Z,23.90
2023-05-06T15:32:03.155Z,22.20
2023-05-06T15:34:31.517Z,20.20
2023-05-06T15:37:02.403Z,22.10
2023-05-06T15:39:36.344Z,22.70
2023-05-06T15:42:04.937Z,23.70
2023-05-06T15:44:34.709Z,24.90
2023-05-06T15:47:03.050Z,25.50
2023-05-06T15:49:51.424Z,26.60
2023-05-06T15:52:21.945Z,25.80
2023-05-06T15:54:50.456Z,23.90
2023-05-06T15:57:19.041Z,25.20
2023-05-06T15:59:47.822Z,25.50
2023-05-06T16:04:47.682Z,27.90
2023-05-06T16:07:17.417Z,29.70
2023-05-06T16:09:45.703Z,28.40
2023-05-06T16:12:15.512Z,29.40
2023-05-06T16:14:43.774Z,26.90
2023-05-06T16:17:12.074Z,25.00
2023-05-06T16:19:40.443Z,23.40
2023-05-06T16:22:08.734Z,26.20
2023-05-06T16:24:37.282Z,26.90
2023-05-06T16:27:06.453Z,26.00
2023-05-06T16:29:34.774Z,27.50
2023-05-06T16:32:03.225Z,25.40
2023-05-06T16:34:31.705Z,22.90
2023-05-06T16:37:01.281Z,23.90
2023-05-06T16:39:29.723Z,22.70
2023-05-06T16:41:58.139Z,22.30
2023-05-06T16:44:26.418Z,21.50
2023-05-06T16:46:54.744Z,20.50
2023-05-06T16:49:23.196Z,19.90
2023-05-06T16:51:51.477Z,19.60
2023-05-06T16:54:19.761Z,19.50
2023-05-06T16:56:52.120Z,19.40
2023-05-06T16:59:22.372Z,19.00
2023-05-06T17:01:51.555Z,18.00
2023-05-06T17:04:19.879Z,18.00
2023-05-06T17:06:48.365Z,17.20
2023-05-06T17:09:17.660Z,16.90
2023-05-06T17:11:46.015Z,16.70
2023-05-06T17:14:17.250Z,16.70
2023-05-06T17:16:45.908Z,16.10
2023-05-06T17:19:14.341Z,16.30
2023-05-06T17:21:42.760Z,16.80
2023-05-06T17:24:11.398Z,17.60
2023-05-06T17:26:41.716Z,18.00
2023-05-06T17:29:10.047Z,18.80
2023-05-06T17:31:38.357Z,19.80
2023-05-06T17:34:06.769Z,20.30
2023-05-06T17:36:35.108Z,19.70
2023-05-06T17:39:05.350Z,19.10
2023-05-06T17:41:34.375Z,18.10
2023-05-06T17:44:03.008Z,18.10
2023-05-06T17:46:31.918Z,17.60
2023-05-06T17:49:00.376Z,17.90
2023-05-06T17:51:28.695Z,18.10
2023-05-06T17:53:58.202Z,18.50
2023-05-06T17:56:26.739Z,18.30
2023-05-06T17:58:55.243Z,17.90
2023-05-06T18:01:23.676Z,17.20
2023-05-06T18:03:52.171Z,17.30
2023-05-06T18:06:20.868Z,17.00
2023-05-06T18:08:49.224Z,16.80
2023-05-06T18:11:18.404Z,16.00
2023-05-06T18:13:46.893Z,16.40
2023-05-06T18:16:15.197Z,16.10
2023-05-06T18:18:44.006Z,15.60
2023-05-06T18:21:12.299Z,15.40
2023-05-06T18:23:40.582Z,15.30
2023-05-06T18:26:08.939Z,15.50
2023-05-06T18:28:44.085Z,15.90
2023-05-06T18:31:12.447Z,16.20
2023-05-06T18:33:40.764Z,16.20
2023-05-06T18:36:12.693Z,16.90
2023-05-06T18:38:41.212Z,17.00
2023-05-06T18:41:09.860Z,17.70
2023-05-06T18:43:38.242Z,17.70
2023-05-06T18:46:06.625Z,17.50
2023-05-06T18:48:35.023Z,16.60
2023-05-06T18:51:17.849Z,17.40
2023-05-06T18:53:46.691Z,18.00
2023-05-06T18:56:15.193Z,18.40
2023-05-06T18:58:43.525Z,18.90
2023-05-06T19:01:12.254Z,19.20
2023-05-06T19:03:40.776Z,19.00
2023-05-06T19:06:09.997Z,17.70
2023-05-06T19:08:39.463Z,17.40
2023-05-06T19:11:14.755Z,17.50
2023-05-06T19:13:46.872Z,17.50
2023-05-06T19:16:15.226Z,17.60
2023-05-06T19:18:43.623Z,17.50
2023-05-06T19:21:12.791Z,17.30
2023-05-06T19:23:41.612Z,17.50
2023-05-06T19:26:12.886Z,17.30
2023-05-06T19:28:41.762Z,17.40
2023-05-06T19:31:11.420Z,17.40
2023-05-06T19:33:40.448Z,17.00
2023-05-06T19:36:09.612Z,16.60
2023-05-06T19:38:39.221Z,16.40
2023-05-06T19:41:09.163Z,16.10
2023-05-06T19:43:43.277Z,16.30
2023-05-06T19:46:15.053Z,16.30
2023-05-06T19:48:43.641Z,15.80
2023-05-06T19:51:15.235Z,15.60
2023-05-06T19:53:44.553Z,15.90
2023-05-06T19:56:19.668Z,16.30
2023-05-06T19:58:54.039Z,16.80
2023-05-06T20:01:35.318Z,17.30
2023-05-06T20:04:07.386Z,17.90
2023-05-06T20:06:37.262Z,18.50
2023-05-06T20:09:10.286Z,18.90
2023-05-06T20:11:45.542Z,19.40
2023-05-06T20:14:21.539Z,19.90
2023-05-06T20:16:49.893Z,19.70
2023-05-06T20:19:19.425Z,20.30
2023-05-06T20:21:55.323Z,20.50
2023-05-06T20:24:24.941Z,20.60
2023-05-06T20:26:59.747Z,20.60
2023-05-06T20:29:28.025Z,20.60
2023-05-06T20:31:56.365Z,20.60
2023-05-06T20:34:24.667Z,20.80
2023-05-06T20:36:55.118Z,20.50
2023-05-06T20:39:23.953Z,20.60
2023-05-06T20:41:52.298Z,20.70
2023-05-06T20:44:20.626Z,19.80
2023-05-06T20:46:48.915Z,19.80
2023-05-06T20:49:17.225Z,19.50
2023-05-06T20:51:45.574Z,19.20
2023-05-06T20:54:13.866Z,19.80
2023-05-06T20:56:43.685Z,19.30
2023-05-06T20:59:12.027Z,18.60
2023-05-06T21:01:40.383Z,18.60
2023-05-06T21:04:08.751Z,19.00
2023-05-06T21:06:37.095Z,19.40
2023-05-06T21:09:05.462Z,19.10
2023-05-06T21:11:33.792Z,19.00
2023-05-06T21:14:02.223Z,18.00
2023-05-06T21:16:30.568Z,17.00
2023-05-06T21:18:58.837Z,17.20
2023-05-06T21:21:27.241Z,17.00
2023-05-06T21:23:55.587Z,16.90
2023-05-06T21:26:23.900Z,17.10
2023-05-06T21:28:52.834Z,17.10
2023-05-06T21:31:22.770Z,16.70
2023-05-06T21:33:59.211Z,16.90
2023-05-06T21:36:27.946Z,17.20
2023-05-06T21:39:11.294Z,16.90
2023-05-06T21:41:40.401Z,16.60
2023-05-06T21:44:10.044Z,16.70
2023-05-06T21:46:38.596Z,16.90
2023-05-06T21:49:07.111Z,17.30
2023-05-06T21:51:37.059Z,17.20
2023-05-06T21:54:05.456Z,17.30
2023-05-06T21:56:33.770Z,16.90
2023-05-06T21:59:02.064Z,16.70
2023-05-06T22:01:30.413Z,16.40
2023-05-06T22:03:58.844Z,16.70
2023-05-06T22:06:27.495Z,16.90
2023-05-06T22:08:55.785Z,17.10
2023-05-06T22:11:25.504Z,17.60
2023-05-06T22:13:53.816Z,17.90
2023-05-06T22:16:22.298Z,18.10
2023-05-06T22:18:50.663Z,18.20
2023-05-06T22:21:18.985Z,18.00
2023-05-06T22:23:47.364Z,17.50
2023-05-06T22:26:15.656Z,17.60
2023-05-06T22:28:43.930Z,17.40
2023-05-06T22:31:12.298Z,17.00
2023-05-06T22:33:40.712Z,17.10
2023-05-06T22:36:09.255Z,17.50
2023-05-06T22:38:37.544Z,17.60
2023-05-06T22:41:05.904Z,17.70
2023-05-06T22:43:34.206Z,17.90
2023-05-06T22:46:02.550Z,18.10
2023-05-06T22:48:32.503Z,17.90
2023-05-06T22:51:02.075Z,18.10
2023-05-06T22:53:30.634Z,18.20
2023-05-06T22:55:59.210Z,18.50
2023-05-06T22:58:27.531Z,18.60
2023-05-06T23:00:56.236Z,18.40
2023-05-06T23:03:24.846Z,18.80
2023-05-06T23:05:53.212Z,18.70
2023-05-06T23:08:21.900Z,18.70
2023-05-06T23:10:50.230Z,18.70
2023-05-06T23:13:18.578Z,18.80
2023-05-06T23:15:46.969Z,18.90
2023-05-06T23:18:15.348Z,18.40
2023-05-06T23:20:43.745Z,17.90
2023-05-06T23:23:12.045Z,18.20
2023-05-06T23:25:40.333Z,18.40
2023-05-06T23:28:08.685Z,18.50
2023-05-06T23:30:37.014Z,18.40
2023-05-06T23:33:05.560Z,18.00
2023-05-06T23:35:34.414Z,17.60
2023-05-06T23:38:02.867Z,17.90
2023-05-06T23:40:31.330Z,18.40
2023-05-06T23:42:59.745Z,17.80
2023-05-06T23:45:28.582Z,18.20
2023-05-06T23:47:57.695Z,18.30
2023-05-06T23:50:26.053Z,18.00
2023-05-06T23:52:54.392Z,17.70
2023-05-06T23:55:22.779Z,17.40
2023-05-06T23:57:51.192Z,17.30
